Time;durP1;ratioP1;P1;durP2;ratioP2;P2;SDS_P1;SDS_P2;PMS_P1;PMS_P2;Temp;Humidity;BMP_temperature;BMP_pressure;BME280_temperature;BME280_humidity;BME280_pressure;Samples;Min_cycle;Max_cycle;Signal;HPM_P1;HPM_P2
2021/01/27 00:00:49;;;;;;;3.00;1.00;;;;;;;25.31;33.81;98619.31;4973669;28;20233;-64
2021/01/27 00:03:16;;;;;;;1.02;0.70;;;;;;;25.29;34.08;98624.03;4974295;28;20348;-63
2021/01/27 00:05:47;;;;;;;3.45;0.90;;;;;;;25.29;33.40;98618.66;4972062;28;20226;-64
2021/01/27 00:08:14;;;;;;;2.35;0.98;;;;;;;25.28;34.01;98617.00;4974757;28;20300;-64
2021/01/27 00:10:40;;;;;;;1.95;0.75;;;;;;;25.16;33.33;98619.19;4973687;28;20361;-64
2021/01/27 00:13:08;;;;;;;3.13;0.98;;;;;;;25.24;33.24;98618.31;4971877;28;20218;-63
2021/01/27 00:15:36;;;;;;;2.40;1.00;;;;;;;25.14;33.19;98615.84;4971871;28;20218;-63
2021/01/27 00:18:05;;;;;;;2.67;1.10;;;;;;;25.15;33.26;98612.19;4974220;28;20226;-63
2021/01/27 00:20:31;;;;;;;2.42;0.80;;;;;;;25.15;33.66;98614.00;4972814;28;20217;-63
2021/01/27 00:22:58;;;;;;;1.42;0.80;;;;;;;25.15;33.14;98601.47;4974044;28;20202;-63
2021/01/27 00:25:28;;;;;;;2.67;1.17;;;;;;;24.96;33.88;98601.88;4973837;28;20270;-63
2021/01/27 00:27:54;;;;;;;2.55;1.10;;;;;;;25.04;34.22;98599.19;4974342;28;20233;-63
2021/01/27 00:30:23;;;;;;;1.65;0.80;;;;;;;25.09;34.41;98586.94;4972639;28;20213;-62
2021/01/27 00:32:50;;;;;;;3.08;1.00;;;;;;;25.10;33.40;98577.91;4973465;28;20210;-64
2021/01/27 00:35:18;;;;;;;3.10;1.05;;;;;;;25.02;34.27;98577.94;4972821;28;20577;-63
2021/01/27 00:37:44;;;;;;;3.10;0.88;;;;;;;24.99;33.70;98572.13;4972783;28;20241;-62
2021/01/27 00:40:11;;;;;;;1.77;0.77;;;;;;;25.22;33.86;98574.88;4972628;28;20381;-64
2021/01/27 00:42:38;;;;;;;1.20;0.63;;;;;;;25.29;33.46;98581.19;4973336;28;20239;-62
2021/01/27 00:45:06;;;;;;;3.17;1.05;;;;;;;25.20;33.41;98576.88;4971331;28;20248;-64
2021/01/27 00:47:33;;;;;;;1.45;0.90;;;;;;;25.23;34.35;98581.88;4972791;28;20210;-63
2021/01/27 00:49:59;;;;;;;1.70;1.00;;;;;;;25.34;33.37;98580.69;4973316;28;20206;-61
2021/01/27 00:52:25;;;;;;;2.05;1.05;;;;;;;25.40;33.44;98567.44;4971599;28;20229;-64
2021/01/27 00:54:51;;;;;;;1.52;0.80;;;;;;;25.39;33.73;98560.41;4973014;28;20292;-64
2021/01/27 00:57:18;;;;;;;3.25;0.98;;;;;;;25.37;33.91;98553.56;4971045;28;20209;-64
2021/01/27 00:59:45;;;;;;;2.25;0.90;;;;;;;25.35;33.36;98548.41;4973432;28;20240;-63
2021/01/27 01:02:11;;;;;;;1.08;0.85;;;;;;;25.05;34.49;98545.50;4972039;28;20305;-64
2021/01/27 01:04:37;;;;;;;1.40;0.82;;;;;;;25.06;34.27;98540.97;4972079;28;20233;-64
2021/01/27 01:07:03;;;;;;;2.22;1.02;;;;;;;25.10;33.53;98540.47;4971727;28;20308;-64
2021/01/27 01:09:29;;;;;;;2.72;0.90;;;;;;;25.25;33.70;98553.13;4971167;28;20214;-62
2021/01/27 01:11:56;;;;;;;2.20;0.90;;;;;;;25.12;34.33;98554.50;4970752;28;20230;-63
2021/01/27 01:14:22;;;;;;;1.25;0.88;;;;;;;25.21;33.22;98554.47;4971888;28;20289;-63
2021/01/27 01:16:49;;;;;;;2.22;1.13;;;;;;;25.34;33.52;98553.94;4972741;28;20253;-63
2021/01/27 01:19:16;;;;;;;1.90;0.70;;;;;;;25.28;33.88;98547.41;4972017;28;20210;-62
2021/01/27 01:21:42;;;;;;;1.40;1.02;;;;;;;25.32;34.11;98543.41;4972065;28;20316;-63
2021/01/27 01:24:09;;;;;;;3.47;1.10;;;;;;;25.35;33.08;98542.19;4970769;28;20309;-64
2021/01/27 01:26:35;;;;;;;2.38;1.10;;;;;;;25.30;33.19;98558.81;4972642;28;20266;-64
2021/01/27 01:29:01;;;;;;;2.00;1.00;;;;;;;25.28;33.21;98547.41;4972183;28;20264;-64
2021/01/27 01:31:27;;;;;;;1.45;0.80;;;;;;;25.38;33.35;98542.69;4970838;28;20735;-62
2021/01/27 01:33:54;;;;;;;4.18;1.00;;;;;;;25.26;33.86;98538.72;4970979;28;20297;-64
2021/01/27 01:36:20;;;;;;;1.58;0.80;;;;;;;25.23;33.23;98529.19;4970558;28;20209;-64
2021/01/27 01:38:46;;;;;;;4.78;0.95;;;;;;;25.29;33.25;98517.81;4971793;28;20688;-64
2021/01/27 01:41:13;;;;;;;0.95;0.60;;;;;;;25.27;34.21;98519.00;4971424;28;20316;-63
2021/01/27 01:43:40;;;;;;;2.78;0.82;;;;;;;25.29;32.91;98522.34;4972014;28;20556;-64
2021/01/27 01:46:13;;;;;;;1.80;1.00;;;;;;;25.19;33.54;98509.16;4972447;28;20233;-64
2021/01/27 01:48:41;;;;;;;4.15;1.00;;;;;;;25.18;33.44;98509.31;4972974;28;20233;-62
2021/01/27 01:51:15;;;;;;;3.28;1.00;;;;;;;25.19;34.08;98506.47;4971712;28;20285;-63
2021/01/27 01:53:42;;;;;;;1.42;0.93;;;;;;;25.17;34.16;98503.16;4972641;28;20265;-64
2021/01/27 01:56:13;;;;;;;1.58;0.90;;;;;;;25.19;33.23;98502.97;4972698;28;20214;-61
2021/01/27 01:58:40;;;;;;;0.60;0.60;;;;;;;25.20;33.71;98499.28;4971049;28;20214;-64
2021/01/27 02:01:06;;;;;;;2.17;0.85;;;;;;;25.20;34.30;98501.97;4971112;28;20226;-64
2021/01/27 02:03:34;;;;;;;1.70;1.20;;;;;;;25.12;33.17;98492.97;4970054;28;20243;-61
2021/01/27 02:06:02;;;;;;;1.83;0.80;;;;;;;25.12;33.87;98486.78;4970519;28;20236;-64
2021/01/27 02:08:31;;;;;;;1.00;0.77;;;;;;;25.12;33.40;98479.59;4970603;28;20269;-64
2021/01/27 02:10:57;;;;;;;3.00;0.85;;;;;;;25.10;34.03;98481.63;4971182;28;20284;-64
2021/01/27 02:13:43;;;;;;;3.90;0.93;;;;;;;25.09;33.95;98482.63;4972522;28;20297;-64
2021/01/27 02:16:23;;;;;;;6.75;0.90;;;;;;;25.12;33.74;98470.75;4972011;28;20202;-64
2021/01/27 02:19:18;;;;;;;3.15;0.90;;;;;;;25.07;34.15;98457.88;4971329;28;20216;-64
2021/01/27 02:22:20;;;;;;;1.13;0.80;;;;;;;25.03;33.85;98455.72;4972862;28;20230;-63
2021/01/27 02:25:24;;;;;;;3.25;1.30;;;;;;;25.03;33.46;98459.28;4950192;28;20251;-64
2021/01/27 02:27:51;;;;;;;3.67;1.10;;;;;;;25.00;33.65;98459.63;4972158;28;20213;-64
2021/01/27 02:30:26;;;;;;;2.55;0.95;;;;;;;24.94;34.67;98466.47;4971347;28;20270;-63
2021/01/27 02:33:37;;;;;;;3.50;0.85;;;;;;;25.00;33.40;98453.44;4971174;28;20210;-64
2021/01/27 02:36:09;;;;;;;2.08;1.00;;;;;;;24.91;34.01;98458.84;4972025;28;20617;-64
2021/01/27 02:38:42;;;;;;;2.58;0.77;;;;;;;24.95;34.09;98459.31;4970845;28;20745;-63
2021/01/27 02:41:13;;;;;;;2.85;1.05;;;;;;;24.94;33.57;98460.31;4972537;28;20653;-63
2021/01/27 02:43:42;;;;;;;2.17;1.08;;;;;;;24.91;33.50;98471.34;4971579;28;20206;-64
2021/01/27 02:46:14;;;;;;;1.58;0.80;;;;;;;24.85;33.52;98458.72;4970689;28;20245;-63
2021/01/27 02:48:46;;;;;;;4.05;1.02;;;;;;;24.92;33.76;98446.28;4971571;28;20286;-58
2021/01/27 02:51:19;;;;;;;5.43;1.10;;;;;;;24.83;34.54;98450.84;4971815;28;20281;-64
2021/01/27 02:53:51;;;;;;;1.95;0.80;;;;;;;24.88;33.98;98455.66;4974662;28;20214;-63
2021/01/27 02:56:24;;;;;;;1.23;0.85;;;;;;;24.85;33.64;98456.84;4974887;28;20228;-63
2021/01/27 02:58:57;;;;;;;2.30;0.95;;;;;;;24.87;34.02;98454.84;4974421;28;20217;-63
2021/01/27 03:01:31;;;;;;;1.25;0.90;;;;;;;24.89;34.26;98466.19;4973923;28;20230;-63
2021/01/27 03:04:02;;;;;;;1.95;1.10;;;;;;;24.84;34.42;98465.06;4974682;28;20213;-63
2021/01/27 03:06:30;;;;;;;1.83;1.15;;;;;;;24.96;33.57;98452.13;4974567;28;20226;-64
2021/01/27 03:09:01;;;;;;;1.08;0.75;;;;;;;24.91;33.48;98450.81;4972848;28;20224;-64
2021/01/27 03:11:30;;;;;;;1.10;0.80;;;;;;;24.90;33.59;98448.31;4972473;28;20597;-57
2021/01/27 03:13:57;;;;;;;1.50;0.90;;;;;;;24.88;33.53;98444.97;4975144;28;20234;-62
2021/01/27 03:16:28;;;;;;;1.20;0.80;;;;;;;24.93;33.64;98445.25;4975017;28;20209;-64
2021/01/27 03:19:02;;;;;;;1.63;0.95;;;;;;;24.80;33.48;98443.19;4975025;28;20293;-59
2021/01/27 03:21:34;;;;;;;3.47;0.98;;;;;;;24.85;34.38;98450.69;4975387;28;20249;-64
2021/01/27 03:24:06;;;;;;;2.10;0.95;;;;;;;24.89;33.71;98447.47;4974085;28;20206;-63
2021/01/27 03:26:37;;;;;;;1.60;0.93;;;;;;;24.96;33.97;98439.56;4974078;28;20230;-64
2021/01/27 03:29:08;;;;;;;1.35;0.75;;;;;;;24.92;33.80;98438.25;4975279;28;20312;-64
2021/01/27 03:31:34;;;;;;;1.73;0.82;;;;;;;24.90;34.13;98442.97;4973911;28;20277;-62
2021/01/27 03:34:04;;;;;;;4.05;1.17;;;;;;;24.96;34.42;98447.59;4973974;28;20210;-63
2021/01/27 03:36:36;;;;;;;1.52;0.98;;;;;;;24.89;33.45;98430.59;4974637;28;20289;-63
2021/01/27 03:39:05;;;;;;;1.00;0.60;;;;;;;24.80;34.27;98431.63;4973311;28;20210;-64
2021/01/27 03:41:35;;;;;;;2.28;0.90;;;;;;;24.83;34.64;98436.63;4973534;28;20232;-64
2021/01/27 03:44:06;;;;;;;1.55;0.70;;;;;;;24.98;33.74;98429.53;4972665;28;20205;-64
2021/01/27 03:46:37;;;;;;;2.03;0.70;;;;;;;25.00;33.88;98438.22;4974245;28;20242;-64
2021/01/27 03:49:08;;;;;;;1.13;0.70;;;;;;;25.03;33.74;98429.00;4973412;28;20202;-64
2021/01/27 03:51:40;;;;;;;1.63;1.00;;;;;;;25.06;33.49;98432.16;4973061;28;20240;-63
2021/01/27 03:54:12;;;;;;;2.25;0.90;;;;;;;25.10;33.44;98433.47;4973508;28;20541;-64
2021/01/27 03:56:42;;;;;;;1.70;0.70;;;;;;;25.04;33.64;98423.47;4972960;28;20594;-64
2021/01/27 03:59:11;;;;;;;1.42;0.80;;;;;;;25.03;33.25;98413.78;4973236;28;20217;-65
2021/01/27 04:01:45;;;;;;;3.20;0.90;;;;;;;25.01;34.02;98418.47;4972949;28;20222;-64
2021/01/27 04:04:12;;;;;;;19.08;1.00;;;;;;;25.03;34.44;98420.97;4971711;28;20224;-64
2021/01/27 04:06:39;;;;;;;4.45;1.02;;;;;;;24.97;34.10;98414.50;4973101;28;20237;-64
2021/01/27 04:09:05;;;;;;;1.50;0.70;;;;;;;24.91;33.51;98413.38;4973793;28;20348;-64
2021/01/27 04:11:31;;;;;;;1.80;0.77;;;;;;;24.93;34.27;98422.03;4972028;28;20365;-63
2021/01/27 04:13:57;;;;;;;8.77;1.02;;;;;;;24.89;34.14;98414.53;4973479;28;20244;-63
2021/01/27 04:16:24;;;;;;;1.60;0.80;;;;;;;24.84;34.64;98404.38;4972012;28;20225;-63
2021/01/27 04:18:51;;;;;;;2.05;1.10;;;;;;;24.89;34.35;98406.53;4972879;28;20206;-62
2021/01/27 04:21:17;;;;;;;4.38;1.00;;;;;;;24.81;34.67;98401.22;4973978;28;20328;-63
2021/01/27 04:23:44;;;;;;;2.63;0.90;;;;;;;24.82;34.63;98397.56;4973576;28;20268;-64
2021/01/27 04:26:11;;;;;;;1.10;1.00;;;;;;;24.79;34.40;98381.84;4973337;28;20236;-62
2021/01/27 04:28:37;;;;;;;2.22;1.00;;;;;;;24.81;33.86;98371.81;4971659;28;20305;-64
2021/01/27 04:31:03;;;;;;;1.40;1.02;;;;;;;24.78;33.82;98369.50;4972292;28;20562;-64
2021/01/27 04:33:29;;;;;;;4.47;0.80;;;;;;;24.74;34.54;98358.31;4971954;28;20305;-64
2021/01/27 04:35:55;;;;;;;2.45;0.73;;;;;;;24.74;34.23;98356.47;4973495;28;20656;-63
2021/01/27 04:38:21;;;;;;;2.60;1.00;;;;;;;24.71;33.77;98348.84;4973198;28;20213;-63
2021/01/27 04:40:52;;;;;;;3.33;0.90;;;;;;;24.65;35.04;98338.00;4971487;28;20226;-60
2021/01/27 04:43:21;;;;;;;1.27;0.90;;;;;;;24.69;34.95;98329.44;4973929;28;20206;-64
2021/01/27 04:45:54;;;;;;;2.92;0.70;;;;;;;24.77;34.28;98320.53;4971214;28;20664;-63
2021/01/27 04:48:28;;;;;;;1.55;0.88;;;;;;;24.91;33.22;98324.28;4973395;28;20226;-64
2021/01/27 04:50:58;;;;;;;1.55;0.80;;;;;;;24.89;33.72;98328.97;4973159;28;20262;-63
2021/01/27 04:53:57;;;;;;;1.38;0.85;;;;;;;24.95;33.77;98325.59;4972878;28;20206;-64
2021/01/27 04:57:18;;;;;;;3.08;0.80;;;;;;;25.05;33.98;98333.38;4973227;28;20198;-63
2021/01/27 05:00:07;;;;;;;1.73;0.93;;;;;;;25.15;33.33;98330.44;4948539;28;20288;-58
2021/01/27 05:02:46;;;;;;;0.90;0.80;;;;;;;25.10;33.15;98318.44;4973808;28;20325;-64
2021/01/27 05:05:15;;;;;;;0.82;0.73;;;;;;;25.15;32.68;98325.94;4973368;28;20221;-61
2021/01/27 05:07:55;;;;;;;1.70;0.70;;;;;;;25.21;33.02;98327.03;4970700;28;20367;-64
2021/01/27 05:10:26;;;;;;;1.05;0.82;;;;;;;25.28;33.40;98322.66;4973602;28;20212;-62
2021/01/27 05:12:57;;;;;;;1.40;0.90;;;;;;;25.24;33.50;98314.13;4972000;28;20241;-63
2021/01/27 05:15:24;;;;;;;1.42;0.70;;;;;;;25.30;32.44;98309.94;4971474;28;20202;-64
2021/01/27 05:17:51;;;;;;;1.13;0.80;;;;;;;25.37;33.13;98296.66;4971378;28;20210;-64
2021/01/27 05:20:19;;;;;;;1.63;0.73;;;;;;;25.43;33.20;98280.72;4973193;28;20216;-63
2021/01/27 05:22:45;;;;;;;2.45;1.08;;;;;;;25.47;33.24;98284.66;4972872;28;20206;-63
2021/01/27 05:25:21;;;;;;;1.08;0.70;;;;;;;25.44;32.77;98273.50;4970565;28;20567;-62
2021/01/27 05:27:48;;;;;;;1.45;0.98;;;;;;;25.44;33.45;98268.16;4972566;28;20214;-63
2021/01/27 05:30:24;;;;;;;2.30;0.93;;;;;;;25.48;33.20;98280.16;4970478;28;20214;-63
2021/01/27 05:32:54;;;;;;;1.38;0.80;;;;;;;25.51;32.77;98273.59;4973134;28;20209;-64
2021/01/27 05:35:31;;;;;;;1.20;0.50;;;;;;;25.42;33.36;98262.97;4970913;28;20316;-62
2021/01/27 05:38:00;;;;;;;1.92;0.77;;;;;;;25.47;33.27;98268.59;4970238;28;20271;-64
2021/01/27 05:40:33;;;;;;;1.58;0.70;;;;;;;25.54;33.38;98273.22;4970717;28;20213;-64
2021/01/27 05:43:12;;;;;;;1.75;0.68;;;;;;;25.49;32.76;98265.75;4971762;28;20207;-61
2021/01/27 05:45:43;;;;;;;1.40;0.82;;;;;;;25.47;33.19;98265.94;4972083;28;20241;-64
2021/01/27 05:48:21;;;;;;;1.27;0.77;;;;;;;25.49;33.08;98266.56;4971463;28;20217;-64
2021/01/27 05:50:48;;;;;;;1.33;0.88;;;;;;;25.51;33.31;98257.53;4971660;28;20309;-64
2021/01/27 05:53:17;;;;;;;1.48;0.80;;;;;;;25.56;33.37;98258.63;4970464;28;20206;-64
2021/01/27 05:55:58;;;;;;;1.38;0.90;;;;;;;25.47;33.24;98255.22;4969965;28;20203;-63
2021/01/27 05:58:25;;;;;;;1.90;0.70;;;;;;;25.50;32.31;98251.34;4971164;28;20292;-62
2021/01/27 06:00:52;;;;;;;2.05;0.90;;;;;;;25.52;32.52;98260.03;4969843;28;20237;-63
2021/01/27 06:03:23;;;;;;;1.55;0.90;;;;;;;25.54;31.96;98257.16;4971026;28;20209;-63
2021/01/27 06:05:51;;;;;;;1.08;0.80;;;;;;;25.53;31.33;98271.56;4972265;28;20311;-63
2021/01/27 06:08:20;;;;;;;1.42;0.90;;;;;;;25.40;32.20;98265.00;4972528;28;20241;-64
2021/01/27 06:10:47;;;;;;;1.20;0.70;;;;;;;25.47;32.09;98267.78;4971368;28;20304;-63
2021/01/27 06:13:18;;;;;;;1.48;0.70;;;;;;;25.48;32.28;98264.09;4970634;28;20210;-64
2021/01/27 06:15:44;;;;;;;3.72;0.93;;;;;;;25.48;31.97;98248.03;4970260;28;20301;-64
2021/01/27 06:18:25;;;;;;;1.75;0.88;;;;;;;25.51;31.02;98244.97;4970671;28;20202;-64
2021/01/27 06:21:07;;;;;;;0.80;0.80;;;;;;;25.52;32.05;98243.97;4972687;28;20230;-63
2021/01/27 06:23:59;;;;;;;4.45;0.82;;;;;;;25.43;31.71;98245.91;4972276;28;20238;-63
2021/01/27 06:26:52;;;;;;;5.55;0.88;;;;;;;25.42;32.84;98243.41;4972635;28;20531;-62
2021/01/27 06:29:27;;;;;;;15.10;1.55;;;;;;;25.41;32.17;98242.56;4975643;28;20213;-65
2021/01/27 06:32:29;;;;;;;38.45;3.33;;;;;;;25.47;33.94;98249.88;4976220;28;20244;-66
2021/01/27 06:35:11;;;;;;;36.63;3.33;;;;;;;25.57;33.77;98240.75;4956230;28;20245;-67
2021/01/27 06:38:02;;;;;;;17.42;3.03;;;;;;;25.55;33.70;98245.47;4976179;28;20208;-66
2021/01/27 06:40:42;;;;;;;19.10;2.90;;;;;;;25.60;34.52;98240.38;4976393;28;20522;-66
2021/01/27 06:43:32;;;;;;;13.38;2.53;;;;;;;25.72;32.84;98246.09;4978356;28;20202;-65
2021/01/27 06:46:14;;;;;;;16.27;2.28;;;;;;;25.88;32.66;98245.03;4991475;28;20312;-62
2021/01/27 06:48:58;;;;;;;11.18;2.00;;;;;;;25.89;32.59;98249.38;4975091;28;20300;-63
2021/01/27 06:51:44;;;;;;;13.40;2.40;;;;;;;27.12;31.53;98250.22;4986929;28;20411;-63
2021/01/27 06:54:36;;;;;;;13.90;2.22;;;;;;;27.53;31.21;98241.44;4994165;28;20206;-65
2021/01/27 06:57:24;;;;;;;5.95;1.60;;;;;;;26.50;31.95;98252.56;4995247;28;20712;-67
2021/01/27 07:00:30;;;;;;;9.77;2.17;;;;;;;25.97;33.59;98241.28;4985360;28;20264;-66
2021/01/27 07:03:44;;;;;;;12.73;2.17;;;;;;;25.95;33.55;98254.00;4964804;28;20217;-68
2021/01/27 07:06:40;;;;;;;14.43;2.20;;;;;;;25.91;33.52;98256.19;4977383;28;20258;-68
2021/01/27 07:09:31;;;;;;;8.85;1.55;;;;;;;25.71;33.95;98253.28;4939748;28;20218;-68
2021/01/27 07:12:10;;;;;;;10.05;1.60;;;;;;;25.73;34.06;98256.63;4979283;28;20241;-67
2021/01/27 07:15:12;;;;;;;8.73;2.03;;;;;;;25.76;34.18;98258.91;4974882;28;20753;-68
2021/01/27 07:17:57;;;;;;;17.75;2.20;;;;;;;25.78;33.97;98264.91;4976749;28;20213;-68
2021/01/27 07:20:27;;;;;;;14.00;1.98;;;;;;;25.89;34.82;98257.41;4975364;28;20321;-66
2021/01/27 07:23:04;;;;;;;12.18;2.08;;;;;;;25.70;34.21;98261.47;4975110;28;20254;-67
2021/01/27 07:25:46;;;;;;;8.70;2.13;;;;;;;25.76;34.51;98266.94;4975311;28;20249;-67
2021/01/27 07:28:17;;;;;;;21.27;1.50;;;;;;;25.76;33.94;98271.47;4977235;28;20630;-66
2021/01/27 07:30:58;;;;;;;16.23;1.55;;;;;;;25.71;33.79;98273.88;4979234;28;20234;-68
2021/01/27 07:33:35;;;;;;;8.32;1.55;;;;;;;25.70;33.04;98274.88;4981184;28;20284;-67
2021/01/27 07:36:14;;;;;;;8.85;1.60;;;;;;;25.64;33.66;98285.31;4977432;28;20210;-67
2021/01/27 07:38:43;;;;;;;4.65;1.30;;;;;;;25.73;33.09;98291.44;4975845;28;20217;-68
2021/01/27 07:41:16;;;;;;;6.78;1.40;;;;;;;25.69;33.59;98291.97;4976060;28;20610;-68
2021/01/27 07:43:51;;;;;;;6.20;1.63;;;;;;;25.74;33.85;98300.28;4974658;28;20241;-67
2021/01/27 07:46:34;;;;;;;12.65;2.13;;;;;;;25.71;32.91;98295.28;4974204;28;20248;-68
2021/01/27 07:49:04;;;;;;;4.93;1.17;;;;;;;25.74;32.92;98292.25;4974646;28;20210;-67
2021/01/27 07:51:50;;;;;;;5.47;1.20;;;;;;;25.88;32.84;98298.59;4974801;28;20641;-68
2021/01/27 07:54:23;;;;;;;8.55;1.48;;;;;;;25.78;33.39;98289.00;4975127;28;20325;-67
2021/01/27 07:56:56;;;;;;;4.47;1.30;;;;;;;25.77;32.82;98284.66;4975440;28;20235;-69
2021/01/27 07:59:29;;;;;;;8.07;1.10;;;;;;;25.78;32.07;98297.06;4975432;28;20685;-68
2021/01/27 08:01:58;;;;;;;3.65;1.50;;;;;;;25.75;30.27;98296.59;4973496;28;20660;-68
2021/01/27 08:04:34;;;;;;;7.70;1.13;;;;;;;25.67;31.74;98289.47;4974730;28;20301;-68
2021/01/27 08:07:01;;;;;;;6.85;1.38;;;;;;;25.56;32.15;98293.44;4973839;28;20229;-70
2021/01/27 08:09:32;;;;;;;4.32;1.08;;;;;;;25.60;31.98;98309.97;4973877;28;20585;-69
2021/01/27 08:12:18;;;;;;;9.63;1.70;;;;;;;25.51;32.40;98311.88;4973152;28;20249;-69
2021/01/27 08:15:02;;;;;;;10.15;1.23;;;;;;;25.41;33.78;98311.31;4974123;28;20202;-68
2021/01/27 08:18:03;;;;;;;9.63;1.30;;;;;;;25.35;34.75;98314.72;4973468;28;20206;-68
2021/01/27 08:20:31;;;;;;;6.50;1.83;;;;;;;25.09;34.45;98316.75;4978867;28;20241;-68
2021/01/27 08:23:00;;;;;;;5.88;1.50;;;;;;;25.00;35.56;98307.16;4983876;28;20206;-69
2021/01/27 08:25:53;;;;;;;7.68;1.60;;;;;;;24.94;36.19;98315.91;4974307;28;20700;-68
2021/01/27 08:28:26;;;;;;;7.78;1.20;;;;;;;24.94;35.95;98314.03;4990512;28;20749;-67
2021/01/27 08:31:32;;;;;;;9.55;1.40;;;;;;;25.08;36.05;98311.59;4991224;28;20237;-67
2021/01/27 08:33:59;;;;;;;5.25;1.17;;;;;;;25.29;35.59;98313.63;4994382;28;20704;-69
2021/01/27 08:37:02;;;;;;;7.22;1.30;;;;;;;25.36;35.88;98305.69;4978942;28;20309;-70
2021/01/27 08:39:28;;;;;;;4.25;1.23;;;;;;;25.50;34.99;98299.53;4971553;28;20214;-69
2021/01/27 08:41:58;;;;;;;10.88;1.70;;;;;;;25.57;34.82;98307.66;4971358;28;20258;-68
2021/01/27 08:44:29;;;;;;;4.85;1.38;;;;;;;25.57;34.77;98302.31;4971218;28;20210;-71
2021/01/27 08:46:57;;;;;;;4.15;1.23;;;;;;;25.66;34.26;98303.88;4974170;28;20609;-70
2021/01/27 08:49:50;;;;;;;5.22;1.30;;;;;;;25.77;34.61;98311.44;4973955;28;20246;-68
2021/01/27 08:52:35;;;;;;;4.75;1.15;;;;;;;25.91;33.98;98308.94;4976372;28;20719;-69
2021/01/27 08:55:22;;;;;;;5.45;1.40;;;;;;;25.97;33.99;98310.91;4992747;28;20244;-69
2021/01/27 08:58:20;;;;;;;9.13;1.38;;;;;;;25.91;35.06;98307.09;4993650;28;20216;-68
2021/01/27 09:00:49;;;;;;;3.33;0.98;;;;;;;25.89;34.59;98310.97;4994637;28;20319;-70
2021/01/27 09:03:59;;;;;;;8.27;1.30;;;;;;;25.92;34.63;98299.91;4992916;28;20213;-68
2021/01/27 09:06:30;;;;;;;5.50;0.98;;;;;;;26.00;34.74;98295.31;4993495;28;20233;-69
2021/01/27 09:09:09;;;;;;;7.15;1.00;;;;;;;26.06;33.97;98298.25;4994348;28;20704;-70
2021/01/27 09:11:36;;;;;;;6.43;1.10;;;;;;;26.02;34.19;98295.94;4993811;28;20624;-70
2021/01/27 09:14:08;;;;;;;5.18;1.20;;;;;;;25.93;34.16;98305.06;4995716;28;20593;-68
2021/01/27 09:16:36;;;;;;;4.20;1.00;;;;;;;25.94;33.93;98301.38;4992957;28;20216;-69
2021/01/27 09:19:08;;;;;;;5.70;1.33;;;;;;;26.04;33.84;98301.94;4977339;28;20261;-70
2021/01/27 09:21:35;;;;;;;5.65;1.30;;;;;;;26.12;33.59;98298.31;4973950;28;20237;-69
2021/01/27 09:24:05;;;;;;;2.92;1.00;;;;;;;26.06;33.88;98296.38;4972098;28;20292;-69
2021/01/27 09:26:41;;;;;;;1.67;0.85;;;;;;;26.07;33.82;98303.41;4978910;28;20317;-70
2021/01/27 09:29:11;;;;;;;4.65;1.10;;;;;;;26.24;33.53;98297.84;4992904;28;20205;-69
2021/01/27 09:31:39;;;;;;;3.38;0.88;;;;;;;26.23;33.38;98294.34;4992233;28;20233;-68
2021/01/27 09:34:22;;;;;;;2.95;0.80;;;;;;;26.08;33.21;98293.53;4991162;28;20210;-68
2021/01/27 09:36:49;;;;;;;3.30;1.10;;;;;;;26.04;34.89;98293.06;4983976;28;20198;-69
2021/01/27 09:39:26;;;;;;;3.83;0.77;;;;;;;25.99;35.01;98285.59;4971824;28;20256;-69
2021/01/27 09:41:52;;;;;;;4.47;0.88;;;;;;;26.06;34.78;98288.34;4973153;28;20693;-69
2021/01/27 09:44:33;;;;;;;3.90;0.73;;;;;;;26.12;34.16;98271.53;4975825;28;20209;-68
2021/01/27 09:47:08;;;;;;;3.33;0.80;;;;;;;26.06;34.99;98285.66;4977079;28;20222;-69
2021/01/27 09:49:39;;;;;;;1.33;0.65;;;;;;;26.01;34.27;98264.81;4978517;28;20332;-70
2021/01/27 09:52:10;;;;;;;3.50;0.77;;;;;;;26.04;34.16;98263.59;4987092;28;20222;-70
2021/01/27 09:54:39;;;;;;;4.88;0.80;;;;;;;26.20;34.30;98266.06;4980914;28;20275;-69
2021/01/27 09:57:06;;;;;;;3.65;1.08;;;;;;;26.33;34.42;98268.06;4974778;28;20237;-69
2021/01/27 09:59:34;;;;;;;3.58;1.15;;;;;;;26.33;34.44;98262.72;4972104;28;20206;-70
2021/01/27 10:02:01;;;;;;;2.85;1.10;;;;;;;26.14;34.39;98263.31;4971064;28;20734;-69
2021/01/27 10:04:34;;;;;;;2.33;0.73;;;;;;;26.13;34.48;98259.81;4970742;28;20682;-68
2021/01/27 10:07:13;;;;;;;2.05;0.77;;;;;;;26.21;34.09;98251.66;4970701;28;20233;-68
2021/01/27 10:09:45;;;;;;;2.95;0.90;;;;;;;26.35;33.97;98249.13;4972115;28;20237;-70
2021/01/27 10:12:19;;;;;;;2.17;0.82;;;;;;;26.39;33.94;98242.34;4972140;28;20237;-72
2021/01/27 10:14:48;;;;;;;2.42;0.73;;;;;;;26.26;34.08;98237.66;4971979;28;20244;-71
2021/01/27 10:17:14;;;;;;;12.90;1.25;;;;;;;26.19;35.21;98221.53;4971343;28;20294;-71
2021/01/27 10:19:48;;;;;;;3.92;1.00;;;;;;;26.36;34.52;98223.97;4970485;28;20237;-70
2021/01/27 10:22:24;;;;;;;1.48;0.77;;;;;;;26.48;33.55;98222.44;4970887;28;20333;-69
2021/01/27 10:24:52;;;;;;;3.72;0.98;;;;;;;26.51;33.84;98223.91;4972440;28;20285;-68
2021/01/27 10:27:31;;;;;;;5.18;0.88;;;;;;;26.44;33.79;98226.50;4971535;28;20344;-67
2021/01/27 10:29:58;;;;;;;4.18;0.85;;;;;;;26.47;33.25;98215.41;4971855;28;20320;-67
2021/01/27 10:32:35;;;;;;;1.95;0.70;;;;;;;26.53;33.17;98224.53;4970271;28;20606;-68
2021/01/27 10:35:23;;;;;;;2.17;0.95;;;;;;;26.46;33.41;98219.09;4971372;28;20210;-67
2021/01/27 10:37:51;;;;;;;2.50;0.75;;;;;;;26.57;33.67;98207.88;4972389;28;20237;-68
2021/01/27 10:40:22;;;;;;;2.40;0.73;;;;;;;26.77;32.76;98217.97;4971438;28;20325;-68
2021/01/27 10:42:50;;;;;;;1.25;0.65;;;;;;;26.90;32.64;98214.59;4971453;28;20230;-68
2021/01/27 10:45:34;;;;;;;2.65;0.80;;;;;;;26.94;32.49;98211.28;4972122;28;20245;-69
2021/01/27 10:48:06;;;;;;;1.73;0.68;;;;;;;26.79;33.01;98204.38;4971624;28;20349;-70
2021/01/27 10:50:33;;;;;;;1.73;0.93;;;;;;;26.80;32.89;98212.22;4971300;28;20305;-69
2021/01/27 10:53:05;;;;;;;7.00;1.00;;;;;;;26.89;32.27;98208.38;4971355;28;20244;-69
2021/01/27 10:55:33;;;;;;;5.30;1.08;;;;;;;27.04;33.27;98197.53;4971609;28;20248;-66
2021/01/27 10:58:04;;;;;;;2.03;0.63;;;;;;;27.04;34.78;98199.41;4970318;28;20635;-67
2021/01/27 11:00:30;;;;;;;5.53;1.13;;;;;;;27.05;34.30;98195.69;4971665;28;20289;-63
2021/01/27 11:02:56;;;;;;;3.67;0.93;;;;;;;26.98;34.64;98211.75;4971269;28;20527;-68
2021/01/27 11:05:23;;;;;;;3.05;0.90;;;;;;;27.04;33.94;98205.59;4971271;28;20230;-68
2021/01/27 11:07:49;;;;;;;5.53;0.70;;;;;;;26.70;33.79;98209.88;4970819;28;20210;-68
2021/01/27 11:10:17;;;;;;;3.65;0.95;;;;;;;26.61;33.39;98215.53;4969309;28;20213;-66
2021/01/27 11:12:43;;;;;;;11.57;1.10;;;;;;;26.57;33.86;98212.41;4970702;28;20230;-67
2021/01/27 11:15:10;;;;;;;16.20;0.70;;;;;;;26.46;33.78;98213.75;4974442;28;20253;-67
2021/01/27 11:17:36;;;;;;;14.43;1.33;;;;;;;26.73;33.75;98209.50;4974222;28;20293;-66
2021/01/27 11:20:04;;;;;;;6.47;1.05;;;;;;;26.60;33.99;98209.34;4973463;28;20292;-67
2021/01/27 11:22:30;;;;;;;4.75;0.80;;;;;;;26.55;33.69;98201.88;4973996;28;20305;-66
2021/01/27 11:24:56;;;;;;;4.57;0.90;;;;;;;26.39;34.91;98215.53;4973764;28;20301;-67
2021/01/27 11:27:23;;;;;;;14.85;1.58;;;;;;;26.53;34.63;98206.63;4972640;28;20352;-67
2021/01/27 11:29:49;;;;;;;11.25;1.10;;;;;;;26.58;34.91;98200.69;4973823;28;20305;-67
2021/01/27 11:32:16;;;;;;;5.10;1.30;;;;;;;26.55;35.53;98206.41;4973259;28;20272;-66
2021/01/27 11:34:42;;;;;;;5.47;1.00;;;;;;;26.45;35.39;98200.56;4973307;28;20748;-67
2021/01/27 11:37:09;;;;;;;6.15;1.58;;;;;;;26.47;35.83;98191.28;4972401;28;20286;-69
2021/01/27 11:39:35;;;;;;;7.95;1.63;;;;;;;26.37;35.85;98188.09;4974790;28;20584;-68
2021/01/27 11:42:03;;;;;;;6.60;1.20;;;;;;;26.35;35.45;98174.06;4973000;28;20313;-67
2021/01/27 11:44:30;;;;;;;6.93;0.98;;;;;;;26.46;34.35;98167.34;4973917;28;20270;-68
2021/01/27 11:46:56;;;;;;;10.80;1.45;;;;;;;26.46;34.46;98165.50;4972563;28;20265;-66
2021/01/27 11:49:23;;;;;;;3.50;0.93;;;;;;;26.50;33.99;98164.09;4973481;28;20293;-66
2021/01/27 11:51:49;;;;;;;5.90;0.80;;;;;;;26.56;34.43;98160.66;4973539;28;20313;-66
2021/01/27 11:54:16;;;;;;;3.92;0.73;;;;;;;26.99;33.50;98148.19;4972794;28;20296;-65
2021/01/27 11:56:43;;;;;;;2.08;0.77;;;;;;;26.68;34.37;98144.88;4974150;28;20289;-65
2021/01/27 11:59:09;;;;;;;2.95;1.15;;;;;;;26.34;34.83;98143.75;4974403;28;20654;-65